Time;durP1;ratioP1;P1;durP2;ratioP2;P2;SDS_P1;SDS_P2;PMS_P1;PMS_P2;Temp;Humidity;BMP_temperature;BMP_pressure;BME280_temperature;BME280_humidity;BME280_pressure;Samples;Min_cycle;Max_cycle;Signal;HPM_P1;HPM_P2
2022/09/28 13:14:34;;;;;;;;;10.50;7.50;;;;;;;;5176060;27;77841;-81
2022/09/28 13:17:00;;;;;;;;;10.50;6.00;;;;;;;;5156328;27;21441;-82
2022/09/28 13:19:25;;;;;;;;;7.75;6.00;;;;;;;;5137560;27;10696;-82
2022/09/28 13:22:02;;;;;;;;;5.25;4.75;;;;;;;;5137427;27;16646;-81
2022/09/28 13:24:32;;;;;;;;;3.00;3.00;;;;;;;;5138733;27;11392;-83
2022/09/28 13:27:01;;;;;;;;;3.00;3.00;;;;;;;;5145937;27;11395;-81
2022/09/28 13:29:27;;;;;;;;;2.00;2.00;;;;;;;;5137807;27;10234;-83
2022/09/28 13:31:57;;;;;;;;;2.00;1.50;;;;;;;;5137546;27;10941;-82
2022/09/28 13:34:31;;;;;;;;;2.00;1.00;;;;;;;;5158521;27;8849;-88
2022/09/28 13:37:08;;;;;;;;;2.00;1.00;;;;;;;;5155378;27;9838;-86
2022/09/28 13:39:54;;;;;;;;;3.00;2.25;;;;;;;;5138432;27;9867;-85
2022/09/28 13:42:28;;;;;;;;;1.00;1.00;;;;;;;;5109237;27;13624;-83
2022/09/28 13:44:53;;;;;;;;;2.25;2.25;;;;;;;;5115096;28;11662;-85
2022/09/28 13:47:18;;;;;;;;;1.50;1.00;;;;;;;;5116163;28;11349;-84
2022/09/28 13:49:55;;;;;;;;;3.00;0.00;;;;;;;;5116236;28;11458;-86
2022/09/28 13:52:32;;;;;;;;;3.00;1.00;;;;;;;;5115258;28;12454;-84
2022/09/28 13:54:57;;;;;;;;;2.00;2.00;;;;;;;;5117817;27;9942;-83
2022/09/28 13:57:27;;;;;;;;;1.00;1.00;;;;;;;;5116523;28;9893;-82
2022/09/28 14:00:01;;;;;;;;;2.75;2.00;;;;;;;;5117160;27;8782;-80
2022/09/28 14:02:33;;;;;;;;;1.00;1.00;;;;;;;;5110628;28;12011;-81
2022/09/28 14:05:03;;;;;;;;;3.00;3.00;;;;;;;;5094589;28;10675;-81
2022/09/28 14:07:34;;;;;;;;;2.00;2.00;;;;;;;;5095770;28;10763;-81
2022/09/28 14:10:17;;;;;;;;;3.00;2.00;;;;;;;;5095881;28;10143;-81
2022/09/28 14:12:44;;;;;;;;;0.75;0.75;;;;;;;;5095911;28;10133;-80
2022/09/28 14:15:28;;;;;;;;;2.00;1.00;;;;;;;;5044180;22;11519;-78
2022/09/28 14:17:53;;;;;;;;;1.25;0.00;;;;;;;;5016459;28;12655;-79
2022/09/28 14:20:21;;;;;;;;;2.00;1.00;;;;;;;;5016622;28;10273;-78
2022/09/28 14:22:49;;;;;;;;;0.00;0.00;;;;;;;;5016205;28;10586;-78
2022/09/28 14:25:29;;;;;;;;;2.25;1.00;;;;;;;;5005849;28;10715;-79
2022/09/28 14:27:59;;;;;;;;;1.00;1.00;;;;;;;;5003114;28;10446;-79
2022/09/28 14:30:26;;;;;;;;;0.25;0.25;;;;;;;;5003056;28;9628;-78
2022/09/28 14:32:51;;;;;;;;;3.00;1.00;;;;;;;;5011129;28;11388;-79
2022/09/28 14:35:30;;;;;;;;;0.25;0.25;;;;;;;;5022539;28;11376;-78
2022/09/28 14:41:10;;;;;;;;;2.00;1.00;;;;;;;;5022300;28;11341;-78
2022/09/28 14:43:44;;;;;;;;;3.00;3.00;;;;;;;;5021920;28;10325;-78
2022/09/28 14:46:10;;;;;;;;;1.00;1.00;;;;;;;;5022751;28;9688;-78
2022/09/28 14:48:54;;;;;;;;;2.25;2.25;;;;;;;;5022474;28;9501;-77
2022/09/28 14:51:36;;;;;;;;;2.00;2.00;;;;;;;;5022622;28;11418;-78
2022/09/28 14:54:03;;;;;;;;;3.00;3.00;;;;;;;;5003683;28;9747;-78
2022/09/28 14:56:32;;;;;;;;;4.00;3.00;;;;;;;;5022724;28;9866;-78
2022/09/28 14:58:57;;;;;;;;;2.75;2.75;;;;;;;;5021694;28;9731;-78
2022/09/28 15:01:24;;;;;;;;;4.50;3.50;;;;;;;;5022113;28;11640;-78
2022/09/28 15:03:54;;;;;;;;;2.00;2.00;;;;;;;;5022161;28;11579;-78
2022/09/28 15:06:24;;;;;;;;;7.00;4.00;;;;;;;;5021783;28;12136;-78
2022/09/28 15:08:49;;;;;;;;;2.00;2.00;;;;;;;;5022119;28;9956;-78
2022/09/28 15:11:16;;;;;;;;;2.00;2.00;;;;;;;;5021861;28;9676;-78
2022/09/28 15:13:42;;;;;;;;;3.00;3.00;;;;;;;;5020373;28;8799;-78
2022/09/28 15:16:12;;;;;;;;;3.75;2.25;;;;;;;;5021508;28;9666;-80
2022/09/28 15:18:42;;;;;;;;;4.75;4.75;;;;;;;;5021209;28;10493;-77
2022/09/28 15:21:09;;;;;;;;;3.75;2.25;;;;;;;;5004114;28;12405;-77
2022/09/28 15:23:39;;;;;;;;;2.00;2.00;;;;;;;;5021713;28;10430;-77
2022/09/28 15:26:08;;;;;;;;;2.25;1.75;;;;;;;;5021508;28;12465;-78
2022/09/28 15:28:34;;;;;;;;;1.25;1.00;;;;;;;;5022183;28;10420;-76
2022/09/28 15:31:01;;;;;;;;;2.50;2.50;;;;;;;;5021517;28;11690;-77
2022/09/28 15:36:15;;;;;;;;;2.00;1.25;;;;;;;;5020313;28;9482;-77
2022/09/28 15:38:41;;;;;;;;;3.25;2.00;;;;;;;;5021471;28;9570;-77
2022/09/28 15:41:08;;;;;;;;;3.25;2.00;;;;;;;;5020770;28;11728;-77
2022/09/28 15:43:36;;;;;;;;;2.50;2.00;;;;;;;;5021345;28;8928;-79
2022/09/28 15:46:04;;;;;;;;;1.00;1.00;;;;;;;;5021357;28;9514;-79
2022/09/28 15:48:30;;;;;;;;;4.00;1.00;;;;;;;;5021336;28;10666;-79
2022/09/28 15:50:58;;;;;;;;;1.00;1.00;;;;;;;;5021733;28;9486;-79
2022/09/28 15:53:24;;;;;;;;;1.00;1.00;;;;;;;;5022115;28;8877;-78
2022/09/28 15:55:50;;;;;;;;;2.00;1.00;;;;;;;;5022160;28;9267;-79
2022/09/28 15:58:19;;;;;;;;;1.00;1.00;;;;;;;;5021633;28;8822;-76
2022/09/28 16:00:45;;;;;;;;;0.00;0.00;;;;;;;;5021822;28;9344;-80
2022/09/28 16:03:10;;;;;;;;;0.67;0.67;;;;;;;;5003320;28;9356;-75
2022/09/28 16:05:50;;;;;;;;;2.33;1.67;;;;;;;;5020958;28;9592;-74
2022/09/28 16:08:26;;;;;;;;;0.00;0.00;;;;;;;;5020618;28;10410;-75
2022/09/28 16:11:15;;;;;;;;;3.00;1.25;;;;;;;;5003128;28;11455;-77
2022/09/28 16:14:01;;;;;;;;;1.00;0.67;;;;;;;;4987291;28;11683;-76
2022/09/28 16:16:34;;;;;;;;;1.33;0.33;;;;;;;;4999510;28;13127;-77
2022/09/28 16:18:59;;;;;;;;;1.67;0.67;;;;;;;;5000369;28;10387;-75
2022/09/28 16:21:25;;;;;;;;;1.00;1.00;;;;;;;;4999774;28;9337;-75
2022/09/28 16:23:51;;;;;;;;;2.00;1.00;;;;;;;;5000037;28;10515;-76
2022/09/28 16:26:27;;;;;;;;;0.00;0.00;;;;;;;;4983352;28;8789;-77
2022/09/28 16:28:52;;;;;;;;;1.00;1.00;;;;;;;;5000884;28;10432;-77
2022/09/28 16:31:18;;;;;;;;;0.00;0.00;;;;;;;;5000668;28;9757;-75
2022/09/28 16:33:47;;;;;;;;;2.00;0.33;;;;;;;;5016740;28;8827;-76
2022/09/28 16:36:14;;;;;;;;;2.00;2.00;;;;;;;;5020695;28;11821;-78
2022/09/28 16:38:42;;;;;;;;;7.75;6.25;;;;;;;;5021880;28;9580;-75
2022/09/28 16:41:08;;;;;;;;;10.75;7.50;;;;;;;;5019694;28;11578;-77
2022/09/28 16:43:35;;;;;;;;;8.25;7.50;;;;;;;;5019231;28;21327;-75
2022/09/28 16:46:11;;;;;;;;;4.75;2.75;;;;;;;;5019606;28;16360;-76
2022/09/28 16:48:44;;;;;;;;;1.75;1.00;;;;;;;;5019687;28;11397;-77
2022/09/28 16:51:10;;;;;;;;;1.50;1.00;;;;;;;;5019233;28;11624;-78
2022/09/28 16:56:20;;;;;;;;;3.25;2.00;;;;;;;;4999660;28;10332;-76
2022/09/28 16:58:48;;;;;;;;;2.50;2.00;;;;;;;;4999940;28;10898;-77
2022/09/28 17:01:13;;;;;;;;;2.50;2.50;;;;;;;;4999459;28;9606;-76
2022/09/28 17:03:43;;;;;;;;;1.75;1.00;;;;;;;;5009930;28;9624;-76
2022/09/28 17:06:10;;;;;;;;;6.50;3.50;;;;;;;;4998495;28;11423;-78
2022/09/28 17:08:35;;;;;;;;;4.00;3.25;;;;;;;;4999111;28;12022;-79
2022/09/28 17:11:01;;;;;;;;;3.00;2.25;;;;;;;;4980735;28;11793;-79
2022/09/28 17:13:30;;;;;;;;;2.00;2.00;;;;;;;;4998687;28;8841;-77
2022/09/28 17:15:56;;;;;;;;;0.50;0.50;;;;;;;;4997294;28;11394;-77
2022/09/28 17:18:22;;;;;;;;;3.25;2.50;;;;;;;;4999869;28;12859;-77
2022/09/28 17:20:49;;;;;;;;;4.00;2.50;;;;;;;;4999571;28;10479;-77
2022/09/28 17:23:15;;;;;;;;;2.00;2.00;;;;;;;;4998630;28;9371;-76
2022/09/28 17:25:40;;;;;;;;;1.75;1.75;;;;;;;;4999186;28;11459;-79
2022/09/28 17:28:12;;;;;;;;;3.25;2.25;;;;;;;;4997335;28;11860;-78
2022/09/28 17:30:37;;;;;;;;;17.75;15.00;;;;;;;;4996062;28;12118;-77
2022/09/28 17:33:03;;;;;;;;;58.00;47.25;;;;;;;;5007302;28;22927;-78
2022/09/28 17:35:28;;;;;;;;;53.00;42.75;;;;;;;;5018587;28;13730;-77
2022/09/28 17:37:53;;;;;;;;;8.00;7.75;;;;;;;;5018977;28;10712;-77
2022/09/28 17:40:20;;;;;;;;;7.75;6.00;;;;;;;;5001167;28;22800;-76
2022/09/28 17:42:46;;;;;;;;;4.50;4.00;;;;;;;;5005898;28;11384;-77
2022/09/28 17:45:12;;;;;;;;;6.50;5.75;;;;;;;;4998267;28;10550;-77
2022/09/28 17:47:37;;;;;;;;;11.00;9.25;;;;;;;;4998510;28;11578;-76
2022/09/28 17:50:15;;;;;;;;;6.00;3.50;;;;;;;;4998607;28;22743;-77
2022/09/28 17:52:41;;;;;;;;;7.00;7.00;;;;;;;;4996194;28;21497;-78
2022/09/28 17:55:06;;;;;;;;;12.00;9.75;;;;;;;;4998139;28;11486;-75
2022/09/28 17:57:31;;;;;;;;;7.00;3.25;;;;;;;;4980589;28;23513;-75
2022/09/28 17:59:57;;;;;;;;;4.00;4.00;;;;;;;;4999754;28;22786;-76
2022/09/28 18:02:23;;;;;;;;;12.25;10.75;;;;;;;;5005126;28;11486;-76
2022/09/28 18:04:49;;;;;;;;;15.00;12.00;;;;;;;;5020635;28;22658;-76
2022/09/28 18:07:14;;;;;;;;;5.00;5.00;;;;;;;;5003785;28;11801;-77
2022/09/28 18:09:39;;;;;;;;;6.00;5.50;;;;;;;;5021073;28;22621;-75
2022/09/28 18:12:05;;;;;;;;;5.50;4.50;;;;;;;;5013915;28;11741;-75
2022/09/28 18:14:30;;;;;;;;;14.50;10.00;;;;;;;;5009172;28;10307;-75
2022/09/28 18:16:56;;;;;;;;;2.25;2.25;;;;;;;;5021214;28;22267;-75
2022/09/28 18:19:21;;;;;;;;;3.00;3.00;;;;;;;;5020925;28;22918;-76
2022/09/28 18:21:47;;;;;;;;;4.00;4.00;;;;;;;;5015639;28;11315;-73
